Time;durP1;ratioP1;P1;durP2;ratioP2;P2;SDS_P1;SDS_P2;PMS_P1;PMS_P2;Temp;Humidity;BMP_temperature;BMP_pressure;BME280_temperature;BME280_humidity;BME280_pressure;Samples;Min_cycle;Max_cycle;Signal;HPM_P1;HPM_P2
2021/07/28 00:01:26;;;;;;;33.42;22.77;;;;;;;17.05;100.00;100552.16;4982524;28;20038;-84
2021/07/28 00:03:51;;;;;;;30.55;22.00;;;;;;;17.02;100.00;100549.88;4981331;28;20405;-85
2021/07/28 00:06:23;;;;;;;31.13;22.23;;;;;;;17.04;100.00;100539.66;4978756;28;20038;-84
2021/07/28 00:08:49;;;;;;;28.75;22.15;;;;;;;17.07;100.00;100549.25;4980204;28;20038;-90
2021/07/28 00:11:17;;;;;;;30.05;21.63;;;;;;;17.05;100.00;100535.06;4982630;28;20146;-87
2021/07/28 00:13:44;;;;;;;28.48;21.33;;;;;;;17.07;100.00;100543.81;4985194;28;20050;-84
2021/07/28 00:16:11;;;;;;;31.23;23.13;;;;;;;17.10;100.00;100537.97;4985782;28;20401;-85
2021/07/28 00:19:05;;;;;;;32.80;22.73;;;;;;;17.01;100.00;100540.09;4985842;28;20116;-84
2021/07/28 00:24:07;;;;;;;32.22;23.40;;;;;;;17.00;100.00;100545.69;4950753;28;20142;-85
2021/07/28 00:26:33;;;;;;;34.35;23.90;;;;;;;17.04;100.00;100541.53;4980236;28;20141;-84
2021/07/28 00:28:58;;;;;;;31.42;22.23;;;;;;;17.03;100.00;100539.84;4983472;28;20420;-84
2021/07/28 00:31:23;;;;;;;34.58;24.23;;;;;;;17.04;100.00;100534.22;4976372;28;20125;-87
2021/07/28 00:33:49;;;;;;;31.45;24.25;;;;;;;17.03;100.00;100535.28;4985308;28;20096;-88
2021/07/28 00:36:14;;;;;;;36.50;26.13;;;;;;;17.02;100.00;100535.50;4989726;28;20444;-84
2021/07/28 00:38:39;;;;;;;37.30;24.92;;;;;;;17.00;100.00;100518.59;4979051;28;20046;-85
2021/07/28 00:41:06;;;;;;;35.45;25.65;;;;;;;16.97;100.00;100516.31;4986022;28;20505;-87
2021/07/28 00:43:32;;;;;;;34.65;23.65;;;;;;;16.99;100.00;100517.78;4984472;28;20054;-85
2021/07/28 00:45:58;;;;;;;36.75;26.05;;;;;;;16.97;100.00;100517.13;4982048;28;20058;-84
2021/07/28 00:48:23;;;;;;;36.42;25.60;;;;;;;16.94;100.00;100522.16;4981836;28;20500;-86
2021/07/28 00:50:49;;;;;;;38.30;27.10;;;;;;;16.96;100.00;100520.09;4986143;28;20097;-84
2021/07/28 00:53:18;;;;;;;38.55;27.30;;;;;;;16.99;100.00;100506.09;4984178;28;20066;-86
2021/07/28 00:55:48;;;;;;;44.67;28.63;;;;;;;16.97;100.00;100511.72;4963621;28;20046;-87
2021/07/28 00:58:14;;;;;;;44.08;28.20;;;;;;;16.96;100.00;100511.94;4977551;28;20052;-85
2021/07/28 01:00:39;;;;;;;43.97;28.75;;;;;;;16.99;100.00;100503.38;4979748;28;20046;-85
2021/07/28 01:03:05;;;;;;;43.55;28.58;;;;;;;16.98;100.00;100509.88;4975224;28;20034;-87
2021/07/28 01:05:30;;;;;;;44.25;29.75;;;;;;;16.96;100.00;100506.53;4983326;28;20486;-86
2021/07/28 01:07:56;;;;;;;41.75;27.92;;;;;;;16.90;100.00;100506.31;4981956;28;20861;-84
2021/07/28 01:10:21;;;;;;;39.70;28.42;;;;;;;16.92;100.00;100506.13;4986715;28;20118;-85
2021/07/28 01:12:52;;;;;;;42.40;27.50;;;;;;;16.87;100.00;100503.22;4982797;28;20050;-86
2021/07/28 01:18:04;;;;;;;37.03;26.98;;;;;;;16.86;100.00;100499.69;4958962;28;20682;-88
2021/07/28 01:20:45;;;;;;;39.33;26.38;;;;;;;16.86;100.00;100499.69;4985611;28;20145;-86
2021/07/28 01:23:28;;;;;;;35.88;24.77;;;;;;;16.86;100.00;100496.97;4945138;28;20058;-90
2021/07/28 01:25:55;;;;;;;35.15;23.02;;;;;;;16.84;100.00;100501.75;4985422;28;20054;-85
2021/07/28 01:28:22;;;;;;;35.90;23.38;;;;;;;16.83;100.00;100499.25;4985899;28;20074;-86
2021/07/28 01:31:08;;;;;;;31.13;21.52;;;;;;;16.86;100.00;100505.09;4985287;28;20568;-85
2021/07/28 01:33:36;;;;;;;32.08;21.15;;;;;;;16.84;100.00;100499.06;4985941;28;20122;-85
2021/07/28 01:36:04;;;;;;;30.15;20.52;;;;;;;16.83;100.00;100500.09;4988963;28;20129;-85
2021/07/28 01:38:31;;;;;;;27.88;19.10;;;;;;;16.81;100.00;100496.78;4988949;28;20043;-86
2021/07/28 01:40:58;;;;;;;30.77;19.02;;;;;;;16.84;100.00;100495.50;4983957;28;20101;-89
2021/07/28 01:43:25;;;;;;;25.92;17.70;;;;;;;16.80;100.00;100494.25;4985827;28;20049;-85
2021/07/28 01:45:50;;;;;;;25.75;17.98;;;;;;;16.78;100.00;100497.19;4984605;28;20045;-87
2021/07/28 01:48:16;;;;;;;24.48;15.75;;;;;;;16.77;100.00;100491.97;4985635;28;20051;-84
2021/07/28 01:50:44;;;;;;;24.80;16.25;;;;;;;16.84;100.00;100496.34;4985227;28;20050;-85
2021/07/28 01:53:09;;;;;;;26.42;15.60;;;;;;;16.81;100.00;100493.22;4984643;28;20609;-91
2021/07/28 01:55:34;;;;;;;21.92;14.05;;;;;;;16.79;100.00;100493.44;4984961;28;20046;-85
2021/07/28 01:58:01;;;;;;;20.60;13.73;;;;;;;16.73;100.00;100483.41;4985316;28;20961;-85
2021/07/28 02:00:26;;;;;;;20.10;13.20;;;;;;;16.69;100.00;100493.03;4985879;28;20716;-85
2021/07/28 02:02:51;;;;;;;20.85;13.63;;;;;;;16.72;100.00;100489.88;4967418;28;20043;-85
2021/07/28 02:05:17;;;;;;;18.00;12.23;;;;;;;16.72;100.00;100491.78;4985201;28;20038;-92
2021/07/28 02:07:42;;;;;;;18.85;12.95;;;;;;;16.73;100.00;100488.84;4984528;28;20129;-84
2021/07/28 02:10:08;;;;;;;21.30;13.23;;;;;;;16.75;100.00;100481.34;4986692;28;20054;-84
2021/07/28 02:12:33;;;;;;;18.35;11.55;;;;;;;16.64;100.00;100490.94;4996049;28;20038;-85
2021/07/28 02:14:59;;;;;;;18.95;11.73;;;;;;;16.65;100.00;100502.59;4990077;28;20112;-87
2021/07/28 02:17:24;;;;;;;17.48;11.27;;;;;;;16.67;100.00;100492.38;4988816;28;20046;-84
2021/07/28 02:19:50;;;;;;;19.45;11.85;;;;;;;16.60;100.00;100496.97;4986219;28;20055;-85
2021/07/28 02:22:15;;;;;;;19.40;12.07;;;;;;;16.58;100.00;100497.19;4987968;28;20056;-86
2021/07/28 02:24:41;;;;;;;16.90;12.90;;;;;;;16.56;100.00;100495.75;4990375;28;20806;-85
2021/07/28 02:27:07;;;;;;;15.98;11.82;;;;;;;16.53;100.00;100499.69;4989230;28;20096;-84
2021/07/28 02:29:34;;;;;;;17.73;11.40;;;;;;;16.44;100.00;100490.97;4985205;28;20674;-85
2021/07/28 02:32:01;;;;;;;16.42;11.35;;;;;;;16.42;100.00;100486.78;4982051;28;20405;-87
2021/07/28 02:34:26;;;;;;;20.45;12.02;;;;;;;16.39;100.00;100492.63;4985908;28;20544;-85
2021/07/28 02:36:52;;;;;;;17.65;11.75;;;;;;;16.34;100.00;100493.28;4985197;28;20146;-87
2021/07/28 02:39:17;;;;;;;19.27;11.73;;;;;;;16.30;100.00;100486.59;4970440;28;20508;-85
2021/07/28 02:41:42;;;;;;;21.52;12.02;;;;;;;16.32;100.00;100498.06;4968495;28;20062;-85
2021/07/28 02:44:08;;;;;;;18.15;12.88;;;;;;;16.35;100.00;100486.81;4980173;28;20046;-86
2021/07/28 02:46:33;;;;;;;17.23;11.85;;;;;;;16.30;100.00;100489.31;4983463;28;20128;-84
2021/07/28 02:48:58;;;;;;;21.45;13.07;;;;;;;16.31;100.00;100492.84;4982418;28;20187;-86
2021/07/28 02:51:24;;;;;;;19.52;12.90;;;;;;;16.29;100.00;100487.66;4984656;28;20133;-86
2021/07/28 02:53:49;;;;;;;16.70;12.02;;;;;;;16.22;100.00;100489.50;4984748;28;20046;-90
2021/07/28 02:56:14;;;;;;;17.33;12.70;;;;;;;16.23;100.00;100477.66;4963430;28;20053;-85
2021/07/28 02:58:40;;;;;;;20.27;12.48;;;;;;;16.22;100.00;100475.97;4984239;28;20081;-85
2021/07/28 03:01:05;;;;;;;19.10;12.50;;;;;;;16.20;100.00;100478.09;4988665;28;20539;-84
2021/07/28 03:03:30;;;;;;;21.77;12.98;;;;;;;16.14;100.00;100478.88;4982820;28;20051;-87
2021/07/28 03:05:56;;;;;;;22.13;13.45;;;;;;;16.17;100.00;100473.91;4983507;28;20414;-85
2021/07/28 03:08:22;;;;;;;21.98;13.13;;;;;;;16.15;100.00;100489.53;4978327;28;20508;-84
2021/07/28 03:10:48;;;;;;;22.08;14.38;;;;;;;16.10;100.00;100485.78;4988396;28;20547;-85
2021/07/28 03:13:13;;;;;;;20.10;13.75;;;;;;;16.10;100.00;100483.06;4980850;28;20508;-85
2021/07/28 03:15:39;;;;;;;23.33;13.98;;;;;;;16.09;100.00;100484.13;4986252;28;20050;-86
2021/07/28 03:18:04;;;;;;;20.60;14.23;;;;;;;16.12;100.00;100479.13;4982018;28;20137;-84
2021/07/28 03:20:29;;;;;;;21.40;14.68;;;;;;;16.12;100.00;100470.16;4986281;28;20050;-89
2021/07/28 03:22:55;;;;;;;22.77;13.52;;;;;;;16.14;100.00;100476.19;4982730;28;20046;-84
2021/07/28 03:25:20;;;;;;;21.58;14.18;;;;;;;16.11;100.00;100465.78;4988133;28;20074;-85
2021/07/28 03:27:45;;;;;;;19.98;13.50;;;;;;;16.12;100.00;100481.00;4983922;28;20047;-85
2021/07/28 03:30:11;;;;;;;22.55;14.15;;;;;;;16.10;100.00;100477.66;4973382;28;20054;-84
2021/07/28 03:32:37;;;;;;;20.63;13.27;;;;;;;16.10;100.00;100472.25;4982825;28;20134;-88
2021/07/28 03:35:02;;;;;;;20.00;13.50;;;;;;;16.09;100.00;100471.41;4978281;28;20643;-84
2021/07/28 03:37:28;;;;;;;20.08;13.40;;;;;;;16.07;100.00;100478.06;4977941;28;20133;-85
2021/07/28 03:40:00;;;;;;;19.27;13.35;;;;;;;16.10;100.00;100483.06;4965151;28;20047;-84
2021/07/28 03:42:29;;;;;;;22.08;13.88;;;;;;;16.09;100.00;100468.72;4987205;28;20133;-87
2021/07/28 03:44:54;;;;;;;;;;;;;;;16.04;100.00;100476.63;4987547;28;20493;-86
2021/07/28 03:47:19;;;;;;;20.83;13.57;;;;;;;15.97;100.00;100473.09;4983672;28;19974;-85
2021/07/28 03:49:45;;;;;;;23.77;13.88;;;;;;;15.95;100.00;100470.56;4979867;28;20317;-84
2021/07/28 03:52:10;;;;;;;22.75;14.02;;;;;;;15.97;100.00;100476.63;4981570;28;20047;-85
2021/07/28 03:54:35;;;;;;;23.55;14.00;;;;;;;15.98;100.00;100464.75;4988377;28;20042;-92
2021/07/28 03:57:00;;;;;;;20.83;13.07;;;;;;;16.01;100.00;100469.75;4980595;28;20113;-85
2021/07/28 03:59:26;;;;;;;22.05;13.25;;;;;;;15.98;100.00;100480.97;4979627;28;20614;-88
2021/07/28 04:01:51;;;;;;;18.65;13.43;;;;;;;16.06;100.00;100481.84;4982646;28;20502;-84
2021/07/28 04:04:17;;;;;;;21.25;13.73;;;;;;;16.10;100.00;100483.06;4963756;28;20074;-85
2021/07/28 04:06:42;;;;;;;21.58;14.07;;;;;;;16.15;100.00;100477.88;4975511;28;20047;-83
2021/07/28 04:09:07;;;;;;;19.95;13.57;;;;;;;16.15;100.00;100475.16;4982464;28;20070;-90
2021/07/28 04:11:33;;;;;;;24.75;13.77;;;;;;;16.21;100.00;100477.84;4981031;28;20050;-85
2021/07/28 04:13:58;;;;;;;19.55;12.80;;;;;;;16.17;100.00;100467.66;4987360;28;20737;-84
2021/07/28 04:16:23;;;;;;;20.33;13.52;;;;;;;16.19;100.00;100466.41;4980659;28;20045;-84
2021/07/28 04:18:49;;;;;;;23.00;13.70;;;;;;;16.23;100.00;100467.66;4969958;28;20053;-85
2021/07/28 04:21:14;;;;;;;22.55;14.02;;;;;;;16.18;100.00;100469.34;4981307;28;20409;-91
2021/07/28 04:23:39;;;;;;;21.80;13.57;;;;;;;16.24;100.00;100473.91;4988318;28;20129;-85
2021/07/28 04:26:05;;;;;;;20.25;13.73;;;;;;;16.26;100.00;100466.41;4987946;28;20077;-86
2021/07/28 04:28:31;;;;;;;19.75;13.30;;;;;;;16.22;100.00;100481.41;4981677;28;20061;-84
2021/07/28 04:30:56;;;;;;;19.23;14.20;;;;;;;16.32;100.00;100464.75;4980167;28;20137;-84
2021/07/28 04:33:22;;;;;;;21.45;14.38;;;;;;;16.36;100.00;100466.81;4979479;28;20130;-85
2021/07/28 04:35:48;;;;;;;22.25;13.63;;;;;;;16.34;100.00;100466.19;4977353;28;20061;-86
2021/07/28 04:38:14;;;;;;;20.27;13.20;;;;;;;16.35;100.00;100470.56;4982640;28;20121;-85
2021/07/28 04:40:40;;;;;;;18.13;12.20;;;;;;;16.36;100.00;100465.97;4982739;28;20129;-86
2021/07/28 04:43:06;;;;;;;20.95;12.90;;;;;;;16.39;100.00;100465.56;4982708;28;20053;-86
2021/07/28 04:45:31;;;;;;;21.75;13.45;;;;;;;16.40;100.00;100473.47;4968542;28;20046;-85
2021/07/28 04:47:56;;;;;;;20.38;14.98;;;;;;;16.43;100.00;100469.53;4967680;28;20038;-88
2021/07/28 04:50:22;;;;;;;17.98;13.50;;;;;;;16.42;100.00;100467.84;4982051;28;20883;-88
2021/07/28 04:52:47;;;;;;;21.27;14.25;;;;;;;16.44;100.00;100469.31;4982415;28;20540;-84
2021/07/28 04:55:14;;;;;;;21.00;14.07;;;;;;;16.45;100.00;100465.53;4980997;28;20549;-85
2021/07/28 04:57:39;;;;;;;23.73;13.18;;;;;;;16.54;100.00;100473.44;4979881;28;20390;-84
2021/07/28 05:00:06;;;;;;;20.80;13.27;;;;;;;16.51;100.00;100469.28;4971097;28;20058;-92
2021/07/28 05:02:32;;;;;;;20.80;13.43;;;;;;;16.53;100.00;100472.63;4962237;28;20047;-85
2021/07/28 05:04:58;;;;;;;19.05;13.13;;;;;;;16.55;100.00;100469.72;4977731;28;20045;-84
2021/07/28 05:07:25;;;;;;;21.50;13.68;;;;;;;16.62;100.00;100475.94;4983403;28;20121;-88
2021/07/28 05:09:51;;;;;;;24.92;14.43;;;;;;;16.64;100.00;100479.28;4982712;28;20082;-85
2021/07/28 05:12:16;;;;;;;19.58;13.02;;;;;;;16.67;100.00;100479.69;4980843;28;20089;-91
2021/07/28 05:14:42;;;;;;;18.92;13.48;;;;;;;16.68;100.00;100473.19;4981069;28;20178;-87
2021/07/28 05:17:07;;;;;;;17.50;13.10;;;;;;;16.66;100.00;100463.66;4965616;28;20468;-83
2021/07/28 05:19:33;;;;;;;21.25;13.00;;;;;;;16.65;100.00;100464.66;4967257;28;20094;-85
2021/07/28 05:21:58;;;;;;;19.60;12.90;;;;;;;16.66;100.00;100471.78;4963361;28;20050;-83
2021/07/28 05:24:25;;;;;;;18.30;12.60;;;;;;;16.70;100.00;100473.00;4964412;28;20109;-84
2021/07/28 05:26:51;;;;;;;22.88;13.32;;;;;;;16.77;100.00;100467.59;4961136;28;20053;-86
2021/07/28 05:29:17;;;;;;;24.30;13.73;;;;;;;16.76;100.00;100466.75;4957618;28;20039;-84
2021/07/28 05:31:43;;;;;;;19.23;13.95;;;;;;;16.83;100.00;100473.00;4961298;28;20042;-83
2021/07/28 05:34:08;;;;;;;20.63;12.82;;;;;;;16.79;100.00;100465.50;4964052;28;20078;-88
2021/07/28 05:36:34;;;;;;;22.60;13.85;;;;;;;16.89;100.00;100476.75;4945181;28;20517;-84
2021/07/28 05:38:59;;;;;;;19.13;13.93;;;;;;;16.86;100.00;100472.59;4971682;28;20457;-86
2021/07/28 05:41:25;;;;;;;18.08;13.95;;;;;;;16.92;100.00;100470.91;4985564;28;20508;-85
2021/07/28 05:43:50;;;;;;;23.25;14.10;;;;;;;16.87;100.00;100466.09;4981792;28;20042;-84
2021/07/28 05:46:16;;;;;;;20.02;14.30;;;;;;;16.92;100.00;100470.91;4976424;28;20061;-84
2021/07/28 05:48:41;;;;;;;23.98;14.70;;;;;;;16.94;100.00;100462.53;4958237;28;20058;-83
2021/07/28 05:51:06;;;;;;;22.00;13.88;;;;;;;16.87;100.00;100471.53;4982009;28;20570;-88
2021/07/28 05:53:34;;;;;;;20.70;13.73;;;;;;;16.92;100.00;100466.31;4970934;28;20498;-84
2021/07/28 05:55:59;;;;;;;20.27;13.60;;;;;;;16.98;100.00;100464.63;4972479;28;20106;-85
2021/07/28 05:58:25;;;;;;;20.75;13.75;;;;;;;17.02;100.00;100473.97;4980769;28;20074;-84
2021/07/28 06:00:50;;;;;;;22.60;14.38;;;;;;;17.01;100.00;100458.75;4969146;28;20112;-85
2021/07/28 06:03:16;;;;;;;17.88;12.55;;;;;;;17.04;100.00;100462.94;4963879;28;20078;-88
2021/07/28 06:05:47;;;;;;;20.63;13.77;;;;;;;17.12;100.00;100470.81;4979395;28;20042;-84
2021/07/28 06:08:12;;;;;;;20.20;13.63;;;;;;;17.12;100.00;100459.97;4977742;28;20054;-85
2021/07/28 06:10:38;;;;;;;17.77;12.88;;;;;;;17.17;100.00;100465.56;4964922;28;20094;-84
2021/07/28 06:13:03;;;;;;;19.33;13.63;;;;;;;17.22;100.00;100471.19;4983743;28;20053;-84
2021/07/28 06:15:29;;;;;;;20.15;12.73;;;;;;;17.24;100.00;100454.72;4975752;28;20066;-85
2021/07/28 06:17:56;;;;;;;19.05;13.60;;;;;;;17.29;100.00;100454.88;4968273;28;20124;-87
2021/07/28 06:20:21;;;;;;;19.52;12.43;;;;;;;17.32;100.00;100457.16;4986697;28;20204;-86
2021/07/28 06:22:47;;;;;;;18.73;13.10;;;;;;;17.36;100.00;100451.09;4975367;28;20583;-85
2021/07/28 06:25:12;;;;;;;18.90;13.77;;;;;;;17.41;100.00;100447.72;4987506;28;20062;-84
2021/07/28 06:27:38;;;;;;;21.85;14.20;;;;;;;17.46;100.00;100453.31;4966594;28;20050;-86
2021/07/28 06:30:03;;;;;;;18.90;12.75;;;;;;;17.45;100.00;100453.53;4979111;28;20042;-85
2021/07/28 06:32:29;;;;;;;20.83;13.30;;;;;;;17.49;100.00;100443.91;4984574;28;20058;-87
2021/07/28 06:34:54;;;;;;;19.15;13.18;;;;;;;17.53;100.00;100450.59;4984895;28;20421;-84
2021/07/28 06:37:20;;;;;;;16.90;12.65;;;;;;;17.47;100.00;100452.28;4987039;28;20157;-90
2021/07/28 06:39:45;;;;;;;18.33;13.23;;;;;;;17.54;100.00;100452.22;4983508;28;20078;-86
2021/07/28 06:42:11;;;;;;;18.23;12.57;;;;;;;17.57;100.00;100457.22;4972538;28;20111;-85
2021/07/28 06:44:36;;;;;;;19.98;12.38;;;;;;;17.60;100.00;100451.34;4979334;28;20141;-86
2021/07/28 06:47:02;;;;;;;18.38;12.95;;;;;;;17.64;100.00;100451.78;4983235;28;20066;-86
2021/07/28 06:49:28;;;;;;;16.38;12.30;;;;;;;17.62;100.00;100457.41;4984931;28;20050;-86
2021/07/28 06:51:53;;;;;;;18.23;12.10;;;;;;;17.65;100.00;100459.69;4981285;28;20101;-88
2021/07/28 06:54:20;;;;;;;16.50;12.40;;;;;;;17.67;100.00;100460.28;4961003;28;20055;-85
2021/07/28 06:56:45;;;;;;;16.77;12.30;;;;;;;17.70;100.00;100462.56;4968681;28;20125;-84
2021/07/28 06:59:11;;;;;;;17.27;11.50;;;;;;;17.72;100.00;100457.75;4978941;28;20137;-85
2021/07/28 07:01:36;;;;;;;19.42;11.65;;;;;;;17.74;100.00;100463.78;4981423;28;20150;-86
2021/07/28 07:04:02;;;;;;;17.67;11.27;;;;;;;17.71;100.00;100453.38;4971475;28;20074;-85
2021/07/28 07:06:27;;;;;;;16.83;11.90;;;;;;;17.76;99.68;100464.41;4983144;28;20042;-86
2021/07/28 07:08:54;;;;;;;16.83;12.10;;;;;;;17.81;100.00;100459.19;4980125;28;20093;-84
2021/07/28 07:11:19;;;;;;;17.67;11.65;;;;;;;17.77;99.84;100457.91;4967839;28;20046;-84
2021/07/28 07:13:44;;;;;;;16.38;11.65;;;;;;;17.79;100.00;100455.03;4987126;28;20046;-88
2021/07/28 07:16:10;;;;;;;20.70;12.40;;;;;;;17.81;100.00;100463.78;4979273;28;20050;-84
2021/07/28 07:18:35;;;;;;;19.27;11.75;;;;;;;17.85;100.00;100454.13;4980788;28;20050;-85
2021/07/28 07:21:01;;;;;;;17.52;11.93;;;;;;;17.83;100.00;100458.94;4982783;28;20074;-86
2021/07/28 07:23:26;;;;;;;16.33;11.40;;;;;;;17.86;99.97;100463.09;4971849;28;20058;-84
2021/07/28 07:25:57;;;;;;;15.30;11.20;;;;;;;17.91;99.91;100468.72;4978623;28;20405;-85
2021/07/28 07:28:22;;;;;;;13.32;10.88;;;;;;;17.96;99.40;100460.75;4982056;28;20046;-84
2021/07/28 07:30:50;;;;;;;18.05;11.98;;;;;;;18.03;99.65;100469.66;4980673;28;20053;-84
2021/07/28 07:35:59;;;;;;;15.38;11.43;;;;;;;18.03;100.00;100464.22;4977653;28;20109;-85
2021/07/28 07:38:25;;;;;;;15.93;11.90;;;;;;;17.87;100.00;100468.34;4978585;28;20054;-86
2021/07/28 07:40:50;;;;;;;17.90;12.43;;;;;;;17.89;100.00;100470.81;4976496;28;20109;-85
2021/07/28 07:43:15;;;;;;;16.65;11.23;;;;;;;17.88;100.00;100471.88;4978843;28;20057;-86
2021/07/28 07:45:41;;;;;;;15.27;11.27;;;;;;;17.77;100.00;100466.06;4967006;28;20042;-89
2021/07/28 07:48:06;;;;;;;18.10;12.07;;;;;;;17.75;100.00;100476.31;4972425;28;20121;-89
2021/07/28 07:50:35;;;;;;;18.30;12.57;;;;;;;17.75;100.00;100465.47;4981259;28;20070;-88
2021/07/28 07:53:01;;;;;;;17.67;12.27;;;;;;;17.73;100.00;100474.88;4974816;28;20038;-89
2021/07/28 07:55:26;;;;;;;17.20;12.48;;;;;;;17.67;100.00;100471.16;4974752;28;20533;-88
2021/07/28 07:57:52;;;;;;;20.02;13.57;;;;;;;17.68;100.00;100470.09;4979092;28;20050;-88
2021/07/28 08:00:17;;;;;;;22.15;13.63;;;;;;;17.71;100.00;100474.25;4977373;28;20097;-87
2021/07/28 08:02:43;;;;;;;22.20;15.02;;;;;;;17.74;100.00;100469.22;4984045;28;20030;-87
2021/07/28 08:05:08;;;;;;;20.45;13.52;;;;;;;17.76;100.00;100466.28;4984290;28;20052;-87
2021/07/28 08:07:34;;;;;;;19.95;12.60;;;;;;;17.75;100.00;100465.47;4982188;28;20048;-86
2021/07/28 08:09:59;;;;;;;16.17;12.50;;;;;;;17.83;100.00;100466.28;4968869;28;20062;-86
2021/07/28 08:12:24;;;;;;;17.42;12.40;;;;;;;17.77;100.00;100463.34;4984755;28;20425;-86
2021/07/28 08:14:50;;;;;;;19.48;12.48;;;;;;;17.81;100.00;100463.78;4974770;28;20054;-86
2021/07/28 08:17:15;;;;;;;17.88;12.75;;;;;;;17.87;100.00;100468.34;4957925;28;20074;-86
2021/07/28 08:19:40;;;;;;;16.80;12.60;;;;;;;17.95;100.00;100459.06;4982585;28;20061;-85
2021/07/28 08:22:06;;;;;;;17.42;12.52;;;;;;;18.01;100.00;100455.47;4980646;28;20149;-85
2021/07/28 08:24:31;;;;;;;17.55;12.27;;;;;;;18.13;100.00;100450.19;4977030;28;20077;-86
2021/07/28 08:26:57;;;;;;;15.77;12.50;;;;;;;18.18;100.00;100464.75;4977658;28;20493;-86
2021/07/28 08:29:22;;;;;;;15.27;11.88;;;;;;;18.25;100.00;100460.06;4986530;28;20061;-85
2021/07/28 08:31:47;;;;;;;17.20;11.50;;;;;;;18.32;100.00;100460.00;4981547;28;20050;-85
2021/07/28 08:34:13;;;;;;;16.33;11.63;;;;;;;18.42;100.00;100459.50;4963823;28;20058;-86
2021/07/28 08:36:38;;;;;;;17.25;11.02;;;;;;;18.52;100.00;100459.81;4980632;28;20061;-89
2021/07/28 08:39:03;;;;;;;17.50;11.73;;;;;;;18.52;99.96;100448.94;4970870;28;20257;-85
2021/07/28 08:41:34;;;;;;;17.35;10.93;;;;;;;18.53;99.95;100444.34;4971246;28;20046;-86
2021/07/28 08:44:00;;;;;;;16.95;11.20;;;;;;;18.62;100.00;100449.25;4973955;28;20050;-85
2021/07/28 08:46:26;;;;;;;16.95;9.98;;;;;;;18.64;98.51;100439.00;4981314;28;20061;-85
2021/07/28 08:48:52;;;;;;;14.88;10.35;;;;;;;18.74;98.04;100440.41;4980184;28;20048;-84
2021/07/28 08:51:18;;;;;;;12.82;9.90;;;;;;;18.86;97.78;100444.00;4979913;28;20047;-86
2021/07/28 08:53:43;;;;;;;14.07;10.88;;;;;;;18.95;96.39;100450.78;4984630;28;20146;-88
2021/07/28 08:56:09;;;;;;;13.10;9.63;;;;;;;19.12;96.96;100442.84;4980550;28;20070;-86
2021/07/28 08:58:34;;;;;;;12.40;8.55;;;;;;;19.24;94.36;100435.56;4981594;28;20129;-85
2021/07/28 09:01:00;;;;;;;12.35;8.77;;;;;;;19.30;92.51;100458.31;4981486;28;20100;-84
2021/07/28 09:03:26;;;;;;;14.57;8.48;;;;;;;19.27;88.98;100440.53;4985561;28;20088;-85
2021/07/28 09:05:55;;;;;;;12.00;7.95;;;;;;;19.35;89.24;100453.00;4984827;28;20053;-84
2021/07/28 09:08:36;;;;;;;11.50;7.75;;;;;;;19.50;88.97;100444.44;4968215;28;20050;-85
2021/07/28 09:11:06;;;;;;;10.13;7.55;;;;;;;19.51;86.27;100451.53;4983903;28;20069;-84
2021/07/28 09:13:33;;;;;;;9.52;7.20;;;;;;;19.52;86.47;100447.75;4980861;28;20078;-85
2021/07/28 09:16:04;;;;;;;10.95;7.40;;;;;;;19.54;86.70;100440.19;4983352;28;20141;-84
2021/07/28 09:18:32;;;;;;;10.75;7.60;;;;;;;19.52;84.76;100440.41;4978868;28;20576;-86
2021/07/28 09:20:59;;;;;;;10.98;7.60;;;;;;;19.51;85.53;100446.09;4971502;28;20050;-86
2021/07/28 09:23:39;;;;;;;12.65;7.65;;;;;;;19.51;85.51;100444.22;4977084;28;20207;-92
2021/07/28 09:26:36;;;;;;;9.68;7.43;;;;;;;19.45;84.99;100447.84;4979238;28;20046;-87
2021/07/28 09:29:12;;;;;;;8.95;6.63;;;;;;;19.52;84.84;100448.56;4972603;28;20059;-86
2021/07/28 09:31:44;;;;;;;10.70;7.40;;;;;;;19.49;82.76;100459.94;4950445;28;20062;-87
2021/07/28 09:34:20;;;;;;;11.27;6.97;;;;;;;19.38;81.57;100438.94;4980536;28;20177;-86
2021/07/28 09:36:56;;;;;;;12.48;7.38;;;;;;;19.45;80.85;100436.13;4964905;28;20109;-87
2021/07/28 09:39:35;;;;;;;9.15;6.80;;;;;;;19.51;80.85;100440.66;4943631;28;20489;-86
2021/07/28 09:42:18;;;;;;;9.20;6.97;;;;;;;19.65;80.16;100453.03;4962823;28;20147;-86
2021/07/28 09:44:46;;;;;;;7.80;6.30;;;;;;;19.79;80.89;100442.75;4954807;28;20054;-84
2021/07/28 09:47:17;;;;;;;9.13;6.90;;;;;;;19.98;79.62;100441.63;4962897;28;20490;-87
2021/07/28 09:49:46;;;;;;;7.90;6.65;;;;;;;20.03;76.78;100449.91;4960062;28;20099;-86
2021/07/28 09:52:23;;;;;;;;;;;;;;;20.09;76.00;100453.59;4976588;28;20059;-86
2021/07/28 09:54:53;;;;;;;8.60;6.15;;;;;;;20.02;75.23;100452.84;4980988;28;19956;-88
2021/07/28 09:57:28;;;;;;;7.55;5.97;;;;;;;19.90;75.36;100439.22;4977077;28;20058;-87
2021/07/28 10:00:03;;;;;;;8.38;5.60;;;;;;;19.95;76.04;100439.38;4980138;28;20387;-87
2021/07/28 10:02:31;;;;;;;9.45;5.60;;;;;;;20.18;74.69;100438.56;4980486;28;20054;-87
2021/07/28 10:04:59;;;;;;;7.05;5.70;;;;;;;20.24;71.95;100448.50;4983957;28;20112;-85
2021/07/28 10:07:26;;;;;;;7.80;5.43;;;;;;;20.19;72.33;100442.94;4983677;28;20042;-85
2021/07/28 10:10:01;;;;;;;10.02;6.30;;;;;;;20.30;72.74;100427.66;4983623;28;20745;-84
2021/07/28 10:12:27;;;;;;;6.60;5.72;;;;;;;20.30;70.82;100444.00;4985630;28;20056;-85
2021/07/28 10:14:56;;;;;;;6.97;5.43;;;;;;;20.35;72.28;100444.13;4980879;28;20054;-85
2021/07/28 10:17:23;;;;;;;8.23;5.63;;;;;;;20.46;74.06;100448.75;4978339;28;20050;-86
2021/07/28 10:19:49;;;;;;;6.93;5.50;;;;;;;20.60;70.78;100446.63;4982636;28;20050;-85
2021/07/28 10:22:15;;;;;;;7.55;5.53;;;;;;;20.76;70.37;100441.50;4984102;28;20125;-86
2021/07/28 10:24:44;;;;;;;6.75;5.38;;;;;;;20.84;71.21;100427.50;4982535;28;20051;-86
2021/07/28 10:27:10;;;;;;;8.52;5.53;;;;;;;20.99;70.75;100432.44;4962538;28;20057;-85
2021/07/28 10:29:35;;;;;;;9.32;6.07;;;;;;;21.05;71.14;100426.84;4977132;28;20050;-86
2021/07/28 10:32:03;;;;;;;8.90;5.43;;;;;;;21.00;70.71;100434.91;4976569;28;20132;-86
2021/07/28 10:34:37;;;;;;;9.30;5.13;;;;;;;21.02;69.08;100435.50;4982570;28;20563;-85
2021/07/28 10:37:05;;;;;;;7.50;4.78;;;;;;;21.12;69.08;100424.81;4979244;28;20081;-85
2021/07/28 10:39:40;;;;;;;8.85;5.15;;;;;;;21.30;68.35;100434.69;4966362;28;20393;-90
2021/07/28 10:42:11;;;;;;;8.10;4.72;;;;;;;21.28;66.71;100428.66;4986708;28;20104;-87
2021/07/28 10:45:05;;;;;;;8.50;5.00;;;;;;;21.30;67.51;100421.06;4982239;28;20108;-86
2021/07/28 10:47:34;;;;;;;9.50;4.05;;;;;;;21.41;66.28;100419.38;4982794;28;20125;-86
2021/07/28 10:50:00;;;;;;;8.10;4.32;;;;;;;21.51;66.82;100435.13;4988199;28;20492;-86
2021/07/28 10:52:39;;;;;;;6.15;3.25;;;;;;;21.60;64.56;100422.72;4985418;28;20059;-87
2021/07/28 10:55:04;;;;;;;5.18;3.53;;;;;;;21.61;63.61;100422.47;4987539;28;20062;-85
2021/07/28 10:57:37;;;;;;;6.18;3.13;;;;;;;21.47;63.28;100412.13;4983881;28;20414;-93
2021/07/28 11:00:10;;;;;;;4.70;3.03;;;;;;;21.50;62.54;100426.09;4972151;28;20054;-87
2021/07/28 11:02:58;;;;;;;7.03;3.35;;;;;;;21.56;64.14;100418.84;4986416;28;20116;-89
2021/07/28 11:05:25;;;;;;;5.43;2.97;;;;;;;21.57;62.93;100418.56;4983567;28;20107;-88
2021/07/28 11:08:02;;;;;;;6.13;2.70;;;;;;;21.59;63.02;100413.69;4979108;28;20050;-85
2021/07/28 11:10:39;;;;;;;6.03;2.63;;;;;;;21.76;62.12;100423.81;4984744;28;20050;-88
2021/07/28 11:13:10;;;;;;;4.78;2.78;;;;;;;21.99;61.85;100425.56;4981501;28;20050;-87
2021/07/28 11:15:37;;;;;;;5.40;3.03;;;;;;;22.00;60.58;100419.00;4985862;28;20049;-84